createdAt,value
2017-07-04T00:00:36.221Z,101450
2017-07-04T00:03:04.421Z,101445
2017-07-04T00:05:32.665Z,101446
2017-07-04T00:08:00.855Z,101452
2017-07-04T00:10:29.853Z,101462
2017-07-04T00:12:58.865Z,101462
2017-07-04T00:15:27.100Z,101459
2017-07-04T00:17:55.296Z,101461
2017-07-04T00:20:24.279Z,101469
2017-07-04T00:22:52.474Z,101461
2017-07-04T00:25:20.678Z,101458
2017-07-04T00:27:48.900Z,101452
2017-07-04T00:30:17.085Z,101462
2017-07-04T00:32:46.048Z,101466
2017-07-04T00:35:14.267Z,101461
2017-07-04T00:37:42.441Z,101467
2017-07-04T00:40:11.391Z,101468
2017-07-04T00:42:39.607Z,101468
2017-07-04T00:45:08.558Z,101462
2017-07-04T00:47:36.745Z,101471
2017-07-04T00:50:04.987Z,101470
2017-07-04T00:52:33.174Z,101470
2017-07-04T00:55:01.383Z,101470
2017-07-04T00:57:30.383Z,101465
2017-07-04T00:59:58.583Z,101474
2017-07-04T01:02:26.779Z,101476
2017-07-04T01:04:54.974Z,101471
2017-07-04T01:07:23.158Z,101474
2017-07-04T01:09:51.339Z,101477
2017-07-04T01:12:19.559Z,101479
2017-07-04T01:14:47.785Z,101480
2017-07-04T01:17:15.952Z,101485
2017-07-04T01:19:44.174Z,101479
2017-07-04T01:22:12.372Z,101490
2017-07-04T01:24:40.559Z,101488
2017-07-04T01:27:08.765Z,101488
2017-07-04T01:29:36.938Z,101482
2017-07-04T01:32:05.120Z,101485
2017-07-04T01:34:33.339Z,101484
2017-07-04T01:37:01.532Z,101491
2017-07-04T01:39:29.697Z,101491
2017-07-04T01:41:57.930Z,101502
2017-07-04T01:44:26.912Z,101492
2017-07-04T01:46:55.095Z,101503
2017-07-04T01:49:23.316Z,101495
2017-07-04T01:51:51.517Z,101494
2017-07-04T01:54:19.704Z,101499
2017-07-04T01:56:47.913Z,101498
2017-07-04T01:59:16.108Z,101508
2017-07-04T02:01:44.281Z,101502
2017-07-04T02:04:12.501Z,101505
2017-07-04T02:06:40.702Z,101506
2017-07-04T02:09:09.679Z,101505
2017-07-04T02:11:37.881Z,101507
2017-07-04T02:14:06.812Z,101507
2017-07-04T02:16:35.017Z,101517
2017-07-04T02:19:03.247Z,101514
2017-07-04T02:21:31.450Z,101515
2017-07-04T02:23:59.639Z,101522
2017-07-04T02:26:27.851Z,101525
2017-07-04T02:28:56.821Z,101525
2017-07-04T02:31:25.007Z,101526
2017-07-04T02:33:53.258Z,101532
2017-07-04T02:36:21.448Z,101527
2017-07-04T02:38:49.613Z,101529
2017-07-04T02:41:17.812Z,101537
2017-07-04T02:43:46.018Z,101532
2017-07-04T02:46:14.231Z,101534
2017-07-04T02:48:42.475Z,101535
2017-07-04T02:51:10.773Z,101526
2017-07-04T02:53:39.001Z,101539
2017-07-04T02:56:07.985Z,101548
2017-07-04T02:58:36.172Z,101546
2017-07-04T03:01:05.124Z,101534
2017-07-04T03:03:33.339Z,101546
2017-07-04T03:06:02.276Z,101548
2017-07-04T03:08:30.472Z,101548
2017-07-04T03:10:58.669Z,101554
2017-07-04T03:13:27.647Z,101555
2017-07-04T03:15:55.850Z,101548
2017-07-04T03:18:24.871Z,101557
2017-07-04T03:20:53.063Z,101554
2017-07-04T03:23:21.270Z,101558
2017-07-04T03:25:49.476Z,101565
2017-07-04T03:28:18.428Z,101560
2017-07-04T03:30:46.612Z,101556
2017-07-04T03:33:14.829Z,101559
2017-07-04T03:35:43.006Z,101563
2017-07-04T03:38:11.211Z,101565
2017-07-04T03:40:39.423Z,101553
2017-07-04T03:43:07.596Z,101553
2017-07-04T03:45:36.538Z,101553
2017-07-04T03:48:04.747Z,101546
2017-07-04T03:50:32.927Z,101540
2017-07-04T03:53:01.096Z,101553
2017-07-04T03:55:29.316Z,101541
2017-07-04T03:57:57.494Z,101544
2017-07-04T04:00:25.690Z,101547
2017-07-04T04:02:53.934Z,101549
2017-07-04T04:05:22.137Z,101559
2017-07-04T04:07:50.339Z,101560
2017-07-04T04:10:18.578Z,101557
2017-07-04T04:12:46.781Z,101561
2017-07-04T04:15:15.002Z,101569
2017-07-04T04:17:43.992Z,101560
2017-07-04T04:20:12.169Z,101568
2017-07-04T04:22:41.133Z,101564
2017-07-04T04:25:09.333Z,101570
2017-07-04T04:27:37.539Z,101573
2017-07-04T04:30:05.728Z,101573
2017-07-04T04:32:33.956Z,101573
2017-07-04T04:35:02.917Z,101567
2017-07-04T04:37:31.085Z,101582
2017-07-04T04:39:59.321Z,101571
2017-07-04T04:42:27.495Z,101567
2017-07-04T04:44:55.709Z,101570
2017-07-04T04:47:23.927Z,101570
2017-07-04T04:49:52.136Z,101566
2017-07-04T04:52:20.309Z,101574
2017-07-04T04:54:48.537Z,101566
2017-07-04T04:57:16.729Z,101572
2017-07-04T04:59:44.944Z,101573
2017-07-04T05:02:13.159Z,101568
2017-07-04T05:04:41.365Z,101576
2017-07-04T05:07:09.569Z,101569
2017-07-04T05:09:37.812Z,101577
2017-07-04T05:12:06.765Z,101573
2017-07-04T05:14:34.958Z,101587
2017-07-04T05:17:03.208Z,101584
2017-07-04T05:19:31.404Z,101575
2017-07-04T05:21:59.577Z,101585
2017-07-04T05:24:27.815Z,101579
2017-07-04T05:26:56.012Z,101572
2017-07-04T05:29:24.181Z,101583
2017-07-04T05:31:52.409Z,101587
2017-07-04T05:34:20.628Z,101595
2017-07-04T05:36:48.808Z,101590
2017-07-04T05:39:17.055Z,101589
2017-07-04T05:41:45.275Z,101593
2017-07-04T05:44:13.448Z,101600
2017-07-04T05:46:41.679Z,101583
2017-07-04T05:49:10.699Z,101596
2017-07-04T05:51:38.886Z,101586
2017-07-04T05:54:07.122Z,101598
2017-07-04T05:56:35.308Z,101593
2017-07-04T05:59:03.504Z,101589
2017-07-04T06:01:31.707Z,101600
2017-07-04T06:03:59.923Z,101605
2017-07-04T06:06:28.090Z,101601
2017-07-04T06:08:57.076Z,101601
2017-07-04T06:11:26.040Z,101612
2017-07-04T06:13:54.222Z,101616
2017-07-04T06:16:22.453Z,101614
2017-07-04T06:18:50.848Z,101617
2017-07-04T06:21:19.129Z,101612
2017-07-04T06:23:47.351Z,101617
2017-07-04T06:26:15.573Z,101612
2017-07-04T06:28:43.753Z,101623
2017-07-04T06:31:11.965Z,101619
2017-07-04T06:33:40.927Z,101627
2017-07-04T06:36:09.116Z,101612
2017-07-04T06:38:37.327Z,101614
2017-07-04T06:41:06.281Z,101616
2017-07-04T06:43:34.449Z,101631
2017-07-04T06:46:02.645Z,101625
2017-07-04T06:48:30.848Z,101632
2017-07-04T06:50:59.043Z,101640
2017-07-04T06:53:27.256Z,101634
2017-07-04T06:55:55.469Z,101630
2017-07-04T06:58:24.422Z,101641
2017-07-04T07:00:52.661Z,101649
2017-07-04T07:03:20.869Z,101638
2017-07-04T07:05:49.078Z,101649
2017-07-04T07:08:18.068Z,101658
2017-07-04T07:10:46.264Z,101656
2017-07-04T07:13:14.439Z,101655
2017-07-04T07:15:42.653Z,101661
2017-07-04T07:18:10.830Z,101654
2017-07-04T07:20:39.002Z,101656
2017-07-04T07:23:07.223Z,101663
2017-07-04T07:25:36.180Z,101668
2017-07-04T07:28:04.372Z,101675
2017-07-04T07:30:32.581Z,101667
2017-07-04T07:33:00.763Z,101678
2017-07-04T07:35:28.951Z,101673
2017-07-04T07:37:57.167Z,101685
2017-07-04T07:40:25.337Z,101691
2017-07-04T07:42:53.528Z,101687
2017-07-04T07:45:21.729Z,101689
2017-07-04T07:47:50.687Z,101696
2017-07-04T07:50:18.876Z,101707
2017-07-04T07:52:47.081Z,101701
2017-07-04T07:55:15.264Z,101702
2017-07-04T07:57:43.463Z,101703
2017-07-04T08:00:11.697Z,101700
2017-07-04T08:02:40.666Z,101691
2017-07-04T08:05:08.872Z,101698
2017-07-04T08:07:37.105Z,101690
2017-07-04T08:10:05.326Z,101708
2017-07-04T08:12:33.502Z,101698
2017-07-04T08:15:01.743Z,101697
2017-07-04T08:17:29.922Z,101694
2017-07-04T08:19:58.112Z,101692
2017-07-04T08:22:27.111Z,101701
2017-07-04T08:24:55.330Z,101698
2017-07-04T08:27:23.553Z,101691
2017-07-04T08:29:52.562Z,101687
2017-07-04T08:32:20.734Z,101694
2017-07-04T08:34:48.942Z,101702
2017-07-04T08:37:17.181Z,101697
2017-07-04T08:39:46.135Z,101704
2017-07-04T08:42:14.322Z,101701
2017-07-04T08:44:42.526Z,101709
2017-07-04T08:47:10.735Z,101716
2017-07-04T08:49:38.931Z,101717
2017-07-04T08:52:07.164Z,101721
2017-07-04T08:54:35.342Z,101711
2017-07-04T08:57:03.516Z,101723
2017-07-04T08:59:31.754Z,101717
2017-07-04T09:01:59.949Z,101720
2017-07-04T09:04:28.907Z,101719
2017-07-04T09:06:57.131Z,101713
2017-07-04T09:09:25.297Z,101739
2017-07-04T09:11:53.483Z,101732
2017-07-04T09:14:21.716Z,101738
2017-07-04T09:16:49.923Z,101731
2017-07-04T09:19:18.111Z,101735
2017-07-04T09:21:46.331Z,101732
2017-07-04T09:24:14.523Z,101716
2017-07-04T09:26:42.715Z,101712
2017-07-04T09:29:11.706Z,101721
2017-07-04T09:31:40.648Z,101725
2017-07-04T09:34:08.855Z,101735
2017-07-04T09:36:37.075Z,101741
2017-07-04T09:39:05.263Z,101729
2017-07-04T09:41:33.449Z,101734
2017-07-04T09:44:01.672Z,101748
2017-07-04T09:46:30.635Z,101748
2017-07-04T09:48:58.824Z,101748
2017-07-04T09:51:27.075Z,101752
2017-07-04T09:53:55.276Z,101749
2017-07-04T09:56:23.486Z,101743
2017-07-04T09:58:51.694Z,101762
2017-07-04T10:01:19.869Z,101759
2017-07-04T10:03:48.064Z,101767
2017-07-04T10:06:16.310Z,101773
2017-07-04T10:08:44.510Z,101763
2017-07-04T10:11:12.696Z,101779
2017-07-04T10:13:40.939Z,101766
2017-07-04T10:16:09.118Z,101756
2017-07-04T10:18:37.328Z,101761
2017-07-04T10:21:05.557Z,101758
2017-07-04T10:23:33.747Z,101746
2017-07-04T10:26:01.967Z,101768
2017-07-04T10:28:30.950Z,101772
2017-07-04T10:30:59.129Z,101774
2017-07-04T10:33:28.099Z,101766
2017-07-04T10:35:56.348Z,101754
2017-07-04T10:38:24.573Z,101746
2017-07-04T10:40:52.763Z,101754
2017-07-04T10:43:20.958Z,101751
2017-07-04T10:45:49.150Z,101779
2017-07-04T10:48:18.353Z,101771
2017-07-04T10:50:46.601Z,101777
2017-07-04T10:53:14.793Z,101785
2017-07-04T10:55:42.987Z,101785
2017-07-04T10:58:11.198Z,101768
2017-07-04T11:00:40.182Z,101774
2017-07-04T11:03:08.370Z,101777
2017-07-04T11:05:36.595Z,101782
2017-07-04T11:08:04.803Z,101787
2017-07-04T11:10:32.982Z,101775
2017-07-04T11:13:01.221Z,101786
2017-07-04T11:15:29.416Z,101795
2017-07-04T11:17:57.597Z,101787
2017-07-04T11:20:25.823Z,101784
2017-07-04T11:22:54.018Z,101784
2017-07-04T11:25:22.212Z,101783
2017-07-04T11:27:50.440Z,101799
2017-07-04T11:30:19.414Z,101794
2017-07-04T11:32:47.622Z,101797
2017-07-04T11:35:15.862Z,101807
2017-07-04T11:37:44.056Z,101792
2017-07-04T11:40:13.028Z,101786
2017-07-04T11:42:41.247Z,101797
2017-07-04T11:45:09.444Z,101785
2017-07-04T11:47:37.631Z,101794
2017-07-04T11:50:05.866Z,101797
2017-07-04T11:52:34.055Z,101798
2017-07-04T11:55:02.244Z,101797
2017-07-04T11:57:30.484Z,101802
2017-07-04T11:59:59.458Z,101808
2017-07-04T12:02:27.630Z,101804
2017-07-04T12:04:55.845Z,101800
2017-07-04T12:07:24.062Z,101804
2017-07-04T12:09:52.260Z,101803
2017-07-04T12:12:20.473Z,101800
2017-07-04T12:14:48.654Z,101799
2017-07-04T12:17:16.857Z,101796
2017-07-04T12:19:45.083Z,101797
2017-07-04T12:22:13.272Z,101812
2017-07-04T12:24:41.458Z,101813
2017-07-04T12:27:09.702Z,101812
2017-07-04T12:29:38.663Z,101820
2017-07-04T12:32:06.867Z,101816
2017-07-04T12:34:35.858Z,101823
2017-07-04T12:37:04.839Z,101821
2017-07-04T12:39:33.031Z,101829
2017-07-04T12:42:02.015Z,101821
2017-07-04T12:44:30.976Z,101825
2017-07-04T12:46:59.186Z,101817
2017-07-04T12:49:28.182Z,101816
2017-07-04T12:51:57.145Z,101824
2017-07-04T12:54:25.347Z,101816
2017-07-04T12:56:54.344Z,101823
2017-07-04T12:59:23.310Z,101826
2017-07-04T13:01:51.528Z,101834
2017-07-04T13:04:19.769Z,101827
2017-07-04T13:06:47.941Z,101827
2017-07-04T13:09:16.134Z,101818
2017-07-04T13:11:45.131Z,101824
2017-07-04T13:14:14.094Z,101823
2017-07-04T13:16:42.277Z,101831
2017-07-04T13:19:10.512Z,101827
2017-07-04T13:21:38.703Z,101829
2017-07-04T13:24:06.895Z,101830
2017-07-04T13:26:35.120Z,101826
2017-07-04T13:29:03.331Z,101819
2017-07-04T13:31:31.525Z,101833
2017-07-04T13:33:59.763Z,101843
2017-07-04T13:36:27.987Z,101835
2017-07-04T13:38:56.198Z,101834
2017-07-04T13:41:24.408Z,101833
2017-07-04T13:43:52.594Z,101827
2017-07-04T13:46:20.807Z,101829
2017-07-04T13:48:49.811Z,101815
2017-07-04T13:51:18.009Z,101827
2017-07-04T13:53:46.211Z,101834
2017-07-04T13:56:14.464Z,101827
2017-07-04T13:58:42.674Z,101831
2017-07-04T14:01:10.863Z,101828
2017-07-04T14:03:39.092Z,101826
2017-07-04T14:06:07.299Z,101833
2017-07-04T14:08:35.487Z,101821
2017-07-04T14:11:03.741Z,101826
2017-07-04T14:13:31.932Z,101835
2017-07-04T14:16:00.140Z,101823
2017-07-04T14:18:29.129Z,101827
2017-07-04T14:20:57.338Z,101825
2017-07-04T14:23:25.532Z,101826
2017-07-04T14:25:53.768Z,101829
2017-07-04T14:28:21.971Z,101829
2017-07-04T14:30:50.150Z,101826
2017-07-04T14:33:18.376Z,101834
2017-07-04T14:35:46.611Z,101827
2017-07-04T14:38:14.888Z,101828
2017-07-04T14:40:43.122Z,101827
2017-07-04T14:43:11.312Z,101832
2017-07-04T14:45:39.481Z,101834
2017-07-04T14:48:07.698Z,101828
2017-07-04T14:50:35.882Z,101826
2017-07-04T14:53:04.091Z,101829
2017-07-04T14:55:33.083Z,101826
2017-07-04T14:58:02.039Z,101832
2017-07-04T15:00:30.229Z,101824
2017-07-04T15:02:58.437Z,101831
2017-07-04T15:05:26.650Z,101826
2017-07-04T15:07:54.818Z,101831
2017-07-04T15:10:23.029Z,101828
2017-07-04T15:12:51.201Z,101818
2017-07-04T15:15:19.365Z,101819
2017-07-04T15:17:47.606Z,101824
2017-07-04T15:20:15.800Z,101822
2017-07-04T15:22:43.984Z,101821
2017-07-04T15:25:12.240Z,101822
2017-07-04T15:27:40.433Z,101823
2017-07-04T15:30:08.606Z,101823
2017-07-04T15:32:36.818Z,101812
2017-07-04T15:35:05.032Z,101819
2017-07-04T15:37:33.233Z,101824
2017-07-04T15:40:01.437Z,101815
2017-07-04T15:42:30.399Z,101820
2017-07-04T15:44:58.574Z,101826
2017-07-04T15:47:26.821Z,101817
2017-07-04T15:49:55.030Z,101818
2017-07-04T15:52:23.205Z,101819
2017-07-04T15:54:51.440Z,101816
2017-07-04T15:57:19.633Z,101808
2017-07-04T15:59:47.816Z,101822
2017-07-04T16:02:16.027Z,101817
2017-07-04T16:04:44.283Z,101823
2017-07-04T16:07:12.437Z,101814
2017-07-04T16:09:40.650Z,101816
2017-07-04T16:12:09.597Z,101811
2017-07-04T16:14:37.788Z,101808
2017-07-04T16:17:05.989Z,101820
2017-07-04T16:19:34.179Z,101809
2017-07-04T16:22:03.141Z,101811
2017-07-04T16:24:31.380Z,101809
2017-07-04T16:26:59.587Z,101809
2017-07-04T16:29:27.775Z,101811
2017-07-04T16:31:56.002Z,101808
2017-07-04T16:34:24.217Z,101803
2017-07-04T16:36:52.394Z,101812
2017-07-04T16:39:20.602Z,101809
2017-07-04T16:41:49.559Z,101806
2017-07-04T16:44:17.744Z,101805
2017-07-04T16:46:45.961Z,101801
2017-07-04T16:49:14.147Z,101799
2017-07-04T16:51:42.336Z,101810
2017-07-04T16:54:10.565Z,101816
2017-07-04T16:56:38.767Z,101804
2017-07-04T16:59:06.960Z,101809
2017-07-04T17:01:35.176Z,101811
2017-07-04T17:04:03.434Z,101807
2017-07-04T17:06:31.653Z,101813
2017-07-04T17:09:00.724Z,101805
2017-07-04T17:11:28.952Z,101806
2017-07-04T17:13:57.130Z,101802
2017-07-04T17:16:25.349Z,101816
2017-07-04T17:18:53.545Z,101805
2017-07-04T17:21:21.748Z,101807
2017-07-04T17:23:49.967Z,101812
2017-07-04T17:26:18.189Z,101807
2017-07-04T17:28:46.404Z,101808
2017-07-04T17:31:14.606Z,101808
2017-07-04T17:33:42.860Z,101811
2017-07-04T17:36:12.261Z,101810
2017-07-04T17:38:40.682Z,101804
2017-07-04T17:41:09.632Z,101806
2017-07-04T17:43:39.068Z,101802
2017-07-04T17:46:07.304Z,101806
2017-07-04T17:48:35.500Z,101809
2017-07-04T17:51:03.675Z,101803
2017-07-04T17:53:31.914Z,101801
2017-07-04T17:56:00.108Z,101799
2017-07-04T17:58:28.337Z,101808
2017-07-04T18:00:57.313Z,101816
2017-07-04T18:03:25.500Z,101815
2017-07-04T18:05:54.471Z,101814
2017-07-04T18:08:25.139Z,101808
2017-07-04T18:10:53.655Z,101805
2017-07-04T18:13:21.861Z,101804
2017-07-04T18:15:50.163Z,101811
2017-07-04T18:18:22.063Z,101810
2017-07-04T18:20:50.290Z,101813
2017-07-04T18:23:19.170Z,101819
2017-07-04T18:25:47.358Z,101823
2017-07-04T18:28:15.605Z,101813
2017-07-04T18:30:44.192Z,101809
2017-07-04T18:33:12.462Z,101812
2017-07-04T18:35:40.663Z,101813
2017-07-04T18:38:08.876Z,101817
2017-07-04T18:40:37.084Z,101808
2017-07-04T18:43:05.260Z,101813
2017-07-04T18:45:33.467Z,101813
2017-07-04T18:48:01.668Z,101811
2017-07-04T18:50:30.643Z,101817
2017-07-04T18:52:58.888Z,101813
2017-07-04T18:55:27.061Z,101819
2017-07-04T18:57:55.266Z,101813
2017-07-04T19:00:23.484Z,101816
2017-07-04T19:02:52.446Z,101815
2017-07-04T19:05:20.662Z,101803
2017-07-04T19:07:49.666Z,101811
2017-07-04T19:10:17.845Z,101811
2017-07-04T19:12:46.018Z,101808
2017-07-04T19:15:14.251Z,101815
2017-07-04T19:17:42.464Z,101820
2017-07-04T19:20:10.675Z,101816
2017-07-04T19:22:38.923Z,101823
2017-07-04T19:25:07.139Z,101823
2017-07-04T19:27:35.352Z,101834
2017-07-04T19:30:03.576Z,101838
2017-07-04T19:32:31.775Z,101822
2017-07-04T19:34:59.967Z,101828
2017-07-04T19:37:28.964Z,101832
2017-07-04T19:39:57.943Z,101838
2017-07-04T19:42:26.184Z,101834
2017-07-04T19:44:54.441Z,101837
2017-07-04T19:47:23.377Z,101832
2017-07-04T19:49:51.611Z,101833
2017-07-04T19:52:19.870Z,101835
2017-07-04T19:54:48.094Z,101837
2017-07-04T19:57:16.273Z,101838
2017-07-04T19:59:44.502Z,101831
2017-07-04T20:02:12.726Z,101831
2017-07-04T20:04:40.931Z,101831
2017-07-04T20:07:09.145Z,101838
2017-07-04T20:09:37.399Z,101839
2017-07-04T20:12:10.576Z,101845
2017-07-04T20:14:38.783Z,101840
2017-07-04T20:17:07.042Z,101840
2017-07-04T20:19:35.244Z,101842
2017-07-04T20:22:04.238Z,101830
2017-07-04T20:24:33.204Z,101836
2017-07-04T20:27:01.397Z,101834
2017-07-04T20:29:29.618Z,101838
2017-07-04T20:31:58.591Z,101827
2017-07-04T20:34:26.872Z,101828
2017-07-04T20:36:55.885Z,101831
2017-07-04T20:39:24.841Z,101826
2017-07-04T20:41:53.041Z,101825
2017-07-04T20:44:22.408Z,101816
2017-07-04T20:46:50.661Z,101825
2017-07-04T20:49:19.001Z,101814
2017-07-04T20:51:47.256Z,101815
2017-07-04T20:54:15.464Z,101805
2017-07-04T20:56:43.681Z,101808
2017-07-04T20:59:11.890Z,101813
2017-07-04T21:01:40.072Z,101813
2017-07-04T21:04:09.044Z,101818
2017-07-04T21:06:37.279Z,101819
2017-07-04T21:09:05.477Z,101822
2017-07-04T21:11:33.679Z,101827
2017-07-04T21:14:01.908Z,101818
2017-07-04T21:16:30.177Z,101823
2017-07-04T21:18:58.484Z,101828
2017-07-04T21:21:26.732Z,101827
2017-07-04T21:23:54.923Z,101825
2017-07-04T21:26:23.121Z,101821
2017-07-04T21:28:51.839Z,101824
2017-07-04T21:31:20.796Z,101827
2017-07-04T21:33:49.944Z,101820
2017-07-04T21:36:18.159Z,101818
2017-07-04T21:38:46.361Z,101819
2017-07-04T21:41:15.552Z,101815
2017-07-04T21:43:43.858Z,101812
2017-07-04T21:46:12.182Z,101810
2017-07-04T21:48:40.360Z,101804
2017-07-04T21:51:08.595Z,101801
2017-07-04T21:53:37.574Z,101809
2017-07-04T21:56:06.557Z,101803
2017-07-04T21:58:34.757Z,101801
2017-07-04T22:01:03.717Z,101798
2017-07-04T22:03:31.917Z,101797
2017-07-04T22:06:00.895Z,101794
2017-07-04T22:08:29.107Z,101797
2017-07-04T22:10:57.317Z,101795
2017-07-04T22:13:25.539Z,101809
2017-07-04T22:15:54.546Z,101796
2017-07-04T22:18:22.760Z,101792
2017-07-04T22:20:51.028Z,101800
2017-07-04T22:23:19.283Z,101796
2017-07-04T22:25:47.493Z,101788
2017-07-04T22:28:15.724Z,101802
2017-07-04T22:30:43.930Z,101805
2017-07-04T22:33:12.120Z,101803
2017-07-04T22:35:40.343Z,101797
2017-07-04T22:38:08.517Z,101799
2017-07-04T22:40:37.464Z,101799
2017-07-04T22:43:05.677Z,101798
2017-07-04T22:45:34.634Z,101793
2017-07-04T22:48:02.828Z,101791
2017-07-04T22:50:31.063Z,101797
2017-07-04T22:52:59.263Z,101793
2017-07-04T22:55:27.455Z,101789
2017-07-04T22:57:55.768Z,101786
2017-07-04T23:00:23.979Z,101793
2017-07-04T23:02:52.186Z,101784
2017-07-04T23:05:20.395Z,101789
2017-07-04T23:07:48.606Z,101791
2017-07-04T23:10:16.789Z,101796
2017-07-04T23:12:45.001Z,101788
2017-07-04T23:15:13.958Z,101784
2017-07-04T23:17:42.134Z,101778
2017-07-04T23:20:10.355Z,101779
2017-07-04T23:22:39.341Z,101785
2017-07-04T23:25:08.311Z,101788
2017-07-04T23:27:36.549Z,101787
2017-07-04T23:30:04.758Z,101787
2017-07-04T23:32:32.943Z,101789
2017-07-04T23:35:01.181Z,101786
2017-07-04T23:37:29.387Z,101780
2017-07-04T23:39:57.594Z,101777
2017-07-04T23:42:25.804Z,101778
2017-07-04T23:44:53.998Z,101783
2017-07-04T23:47:22.187Z,101782
2017-07-04T23:49:50.421Z,101783
2017-07-04T23:52:18.616Z,101773
2017-07-04T23:54:46.824Z,101777
2017-07-04T23:57:15.029Z,101778
2017-07-04T23:59:43.234Z,101772
